Date,TemperatureHighF,TemperatureAvgF,TemperatureLowF,DewpointHighF,DewpointAvgF,DewpointLowF,HumidityHigh,HumidityAvg,HumidityLow,PressureMaxIn,PressureMinIn,WindSpeedMaxMPH,WindSpeedAvgMPH,GustSpeedMaxMPH,PrecipitationSumIn
2013-2-1,30.0,27.1,21.9,15.1,9.7,5.2,64,48,36,30.24,29.80,17,6,23,0.00
2013-2-2,27.5,22.7,16.2,21.1,10.9,3.9,91,62,39,30.30,30.03,14,2,17,0.00
2013-2-3,30.9,24.3,19.2,21.6,19.3,16.5,93,82,63,30.04,29.80,6,1,14,0.04
2013-2-4,29.4,25.3,21.1,17.8,9.8,6.7,71,52,39,30.00,29.83,16,5,20,0.00
2013-2-5,31.2,28.4,24.8,28.7,24.1,17.7,95,84,74,29.96,29.88,2,0,5,0.01
2013-2-6,30.3,26.6,24.2,29.3,25.5,23.2,96,96,95,30.00,29.92,0,0,2,0.00
2013-2-7,32.8,25.9,17.3,17.1,14.5,10.3,85,63,43,30.49,30.34,2,0,10,0.00
2013-2-8,35.0,32.9,30.1,32.6,28.5,18.7,97,84,62,30.30,29.67,5,2,14,0.14
2013-2-9,34.0,27.3,19.2,31.4,12.9,4.8,98,56,39,30.37,29.76,23,6,23,0.11
2013-2-10,38.9,24.1,11.1,20.3,9.9,5.1,80,57,28,30.48,30.30,8,0,10,0.07
2013-2-11,40.9,33.3,27.8,40.9,31.1,19.6,100,92,71,30.31,29.65,1,0,6,0.03
2013-2-12,43.3,40.0,32.9,39.3,24.5,22.2,100,54,48,29.97,29.73,19,6,28,0.00
2013-2-13,42.5,34.3,21.4,32.4,25.6,18.9,96,72,51,29.96,29.67,5,0,7,0.01
2013-2-14,45.7,37.2,29.4,35.8,29.2,24.9,99,75,45,29.98,29.70,9,1,13,0.08
2013-2-15,55.3,45.3,24.4,34.4,29.2,22.9,96,56,37,30.00,29.89,15,2,18,0.01
2013-2-16,36.8,34.1,31.5,34.3,25.5,15.5,97,72,50,29.97,29.82,4,1,12,0.03
2013-2-17,30.4,25.9,18.6,10.1,4.2,-1.4,46,39,29,30.05,29.72,11,7,34,0.00
2013-2-18,35.3,25.9,16.2,16.6,5.9,-1.2,67,43,30,30.29,30.05,16,4,25,0.00
2013-2-19,43.1,29.7,18.8,41.8,25.1,15.6,97,83,54,30.18,29.68,8,1,21,0.44
2013-2-20,35.6,29.0,24.4,23.5,12.5,8.4,61,50,42,30.02,29.75,17,8,29,0.00
2013-2-21,35.6,29.3,22.9,15.3,13.1,9.3,64,51,41,30.30,30.00,17,7,25,0.00
2013-2-22,35.5,26.9,21.4,21.6,17.1,12.7,74,67,56,30.40,30.29,7,1,11,0.00
2013-2-23,41.8,39.4,32.8,41.5,38.8,27.4,99,98,80,30.25,29.83,7,1,11,0.12
2013-2-24,45.8,37.7,32.2,38.3,30.6,20.4,98,77,55,30.00,29.77,8,3,20,0.01
2013-2-25,44.6,33.5,26.0,29.0,24.3,20.8,90,69,50,30.23,30.00,4,1,15,0.00
2013-2-26,43.8,35.4,24.1,34.6,29.2,22.6,95,79,59,30.26,29.83,11,2,17,0.21
2013-2-27,48.8,43.1,36.2,46.0,41.0,34.6,98,93,70,29.84,29.50,11,3,19,0.32
2013-2-28,46.4,41.6,33.4,37.2,32.0,25.7,96,70,48,29.63,29.55,13,2,14,0.00